.
WxDataArchive / Data Records for 2012-06-21
2012-06-20 June 2012 2012-06-22

Data Records for Thursday, 21 June 2012

Time	Temp	Chill	HIndex	Humid	Dewpt	 Wind 	HiWind	WindDir	Rain 	Barom 
-----	----	-----	------	-----	-----	------	------	-------	-----	----- 
00:00	80.5	80.5	81.0	48	59.0	0	1	292	0.00	29.929 
00:05	80.5	80.5	81.0	48	59.0	0	2	292	0.00	29.929 
00:10	80.5	80.5	81.2	49	59.6	0	1	292	0.00	29.929 
00:15	80.3	80.3	81.0	49	59.4	0	2	292	0.00	29.938 
00:20	80.1	80.1	80.9	50	59.8	0	1	292	0.00	29.938 
00:25	79.9	79.9	80.7	50	59.6	0	3	292	0.00	29.938 
00:30	79.9	79.9	80.7	50	59.6	1	3	292	0.00	29.939 
00:35	79.9	79.9	80.8	51	60.1	0	3	292	0.00	29.939 
00:40	79.9	79.9	80.8	51	60.1	0	2	292	0.00	29.939 
00:45	79.9	79.9	80.8	51	60.1	0	2	292	0.00	29.946 
00:50	79.9	79.9	80.8	51	60.1	0	3	292	0.00	29.946 
00:55	79.8	79.8	80.8	52	60.6	0	1	315	0.00	29.946 
01:00	79.6	79.6	80.6	52	60.4	1	3	270	0.00	29.947 
01:05	79.6	79.6	80.6	52	60.4	0	1	270	0.00	29.947 
01:10	79.4	79.4	80.5	52	60.2	0	3	270	0.00	29.947 
01:15	79.2	79.2	80.4	53	60.6	0	2	270	0.00	29.946 
01:20	79.2	79.2	80.4	53	60.6	0	1	270	0.00	29.946 
01:25	79.0	79.0	80.3	54	60.9	0	1	270	0.00	29.946 
01:30	78.8	78.8	80.1	54	60.7	0	3	248	0.00	29.950 
01:35	78.8	78.8	80.1	54	60.7	0	1	248	0.00	29.950 
01:40	78.6	78.6	79.9	54	60.5	0	2	248	0.00	29.950 
01:45	78.6	78.6	79.9	54	60.5	0	3	270	0.00	29.957 
01:50	78.6	78.6	79.9	54	60.5	0	1	270	0.00	29.957 
01:55	78.6	78.6	79.9	54	60.5	0	1	270	0.00	29.957 
02:00	78.5	78.5	79.9	55	61.0	0	1	270	0.00	29.959 
02:05	78.5	78.5	79.9	55	61.0	0	2	270	0.00	29.959 
02:10	78.5	78.5	79.9	55	61.0	0	3	270	0.00	29.959 
02:15	78.5	78.5	79.9	55	61.0	1	3	270	0.00	29.957 
02:20	78.5	78.5	79.9	55	61.0	0	1	270	0.00	29.957 
02:25	78.3	78.3	79.7	55	60.8	0	3	270	0.00	29.957 
02:30	78.3	78.3	79.7	55	60.8	0	1	270	0.00	29.960 
02:35	78.1	78.1	79.5	55	60.6	0	2	270	0.00	29.960 
02:40	78.1	78.1	79.6	56	61.1	0	1	270	0.00	29.960 
02:45	77.9	77.9	79.4	56	60.9	0	2	270	0.00	29.958 
02:50	77.7	77.7	79.3	56	60.7	0	2	270	0.00	29.958 
02:55	77.7	77.7	79.3	56	60.7	0	1	270	0.00	29.958 
03:00	77.7	77.7	79.3	56	60.7	0	3	270	0.00	29.957 
03:05	77.6	77.6	79.2	57	61.1	0	3	270	0.00	29.957 
03:10	77.7	77.7	79.3	56	60.7	1	2	270	0.00	29.957 
03:15	77.7	77.7	79.3	56	60.7	0	2	270	0.00	29.952 
03:20	77.7	77.7	79.3	57	61.2	0	1	270	0.00	29.952 
03:25	77.7	77.7	79.3	57	61.2	0	2	270	0.00	29.952 
03:30	77.6	77.6	79.2	57	61.1	0	1	270	0.00	29.949 
03:35	77.6	77.6	79.2	57	61.1	0	5	270	0.00	29.949 
03:40	77.6	77.6	79.2	57	61.1	0	1	270	0.00	29.949 
03:45	77.6	77.6	79.2	57	61.1	0	2	270	0.00	29.945 
03:50	77.4	77.4	79.1	57	61.0	0	1	270	0.00	29.945 
03:55	77.2	77.2	78.9	57	60.8	0	3	270	0.00	29.945 
04:00	77.2	77.2	78.9	58	61.3	0	3	270	0.00	29.944 
04:05	77.0	77.0	78.8	58	61.1	0	2	270	0.00	29.944 
04:10	77.0	77.0	78.8	58	61.1	0	2	270	0.00	29.944 
04:15	76.8	76.8	78.6	58	60.9	0	2	270	0.00	29.941 
04:20	76.8	76.8	78.6	58	60.9	0	1	270	0.00	29.941 
04:25	76.7	76.7	78.5	58	60.8	0	1	270	0.00	29.941 
04:30	76.7	76.7	78.5	58	60.8	0	3	270	0.00	29.940 
04:35	76.5	76.5	78.4	58	60.6	0	2	270	0.00	29.940 
04:40	76.5	76.5	78.4	58	60.6	0	2	270	0.00	29.940 
04:45	76.5	76.5	78.4	59	61.1	0	2	270	0.00	29.936 
04:50	76.3	76.3	78.2	59	60.9	0	3	292	0.00	29.936 
04:55	76.3	76.3	78.2	59	60.9	0	2	292	0.00	29.936 
05:00	76.1	76.1	78.1	59	60.7	0	3	292	0.00	29.939 
05:05	76.1	76.1	78.1	59	60.7	0	1	248	0.00	29.939 
05:10	76.1	76.1	78.1	59	60.7	0	2	248	0.00	29.939 
05:15	76.1	76.1	78.1	59	60.7	1	3	248	0.00	29.939 
05:20	76.1	76.1	78.1	59	60.7	0	1	270	0.00	29.939 
05:25	76.0	76.0	78.0	59	60.6	0	3	270	0.00	29.939 
05:30	76.0	76.0	78.0	59	60.6	0	1	270	0.00	29.939 
05:35	76.0	76.0	78.0	59	60.6	0	2	270	0.00	29.939 
05:40	75.8	75.8	77.9	59	60.4	0	2	270	0.00	29.939 
05:45	75.8	75.8	77.9	59	60.4	0	2	292	0.00	29.937 
05:50	75.8	75.8	77.9	59	60.4	0	1	292	0.00	29.937 
05:55	75.6	75.6	77.8	59	60.2	0	2	292	0.00	29.937 
06:00	75.4	75.4	77.6	60	60.5	0	2	292	0.00	29.938 
06:05	75.4	75.4	77.6	60	60.5	0	3	292	0.00	29.938 
06:10	75.3	75.3	77.5	60	60.4	1	3	292	0.00	29.938 
06:15	75.3	75.3	77.5	60	60.4	0	2	292	0.00	29.939 
06:20	75.3	75.3	77.5	60	60.4	0	1	292	0.00	29.939 
06:25	75.1	75.1	77.4	61	60.7	0	2	292	0.00	29.939 
06:30	74.9	74.9	74.9	61	60.5	0	3	315	0.00	29.937 
06:35	74.9	74.9	74.9	61	60.5	0	2	315	0.00	29.937 
06:40	74.9	74.9	74.9	61	60.5	0	1	315	0.00	29.937 
06:45	74.9	74.9	74.9	61	60.5	0	2	315	0.00	29.938 
06:50	74.9	74.9	74.9	61	60.5	0	1	315	0.00	29.938 
06:55	74.9	74.9	74.9	61	60.5	0	2	315	0.00	29.938 
07:00	75.1	75.1	77.4	61	60.7	0	2	315	0.00	29.932 
07:05	75.1	75.1	77.4	60	60.2	1	3	315	0.00	29.932 
07:10	75.3	75.3	77.5	60	60.4	1	2	315	0.00	29.932 
07:15	75.4	75.4	77.6	59	60.1	0	2	315	0.00	29.936 
07:20	75.6	75.6	77.8	59	60.2	1	2	248	0.00	29.936 
07:25	75.8	75.8	77.9	58	59.9	1	3	248	0.00	29.936 
07:30	76.1	76.1	78.1	58	60.2	1	3	248	0.00	29.934 
07:35	76.3	76.3	78.3	57	59.9	1	3	248	0.00	29.934 
07:40	76.5	76.5	78.4	57	60.1	0	2	248	0.00	29.934 
07:45	76.7	76.7	78.5	57	60.3	1	2	248	0.00	29.931 
07:50	77.0	77.0	78.7	57	60.6	1	3	248	0.00	29.931 
07:55	77.0	77.0	78.7	56	60.1	1	3	248	0.00	29.931 
08:00	77.4	77.4	79.0	56	60.5	1	2	248	0.00	29.926 
08:05	77.9	77.9	79.3	54	59.9	1	4	292	0.00	29.926 
08:10	78.5	78.5	79.8	54	60.4	1	3	292	0.00	29.926 
08:15	78.8	78.8	80.0	53	60.2	1	3	292	0.00	29.933 
08:20	79.2	79.2	80.4	53	60.6	1	3	292	0.00	29.933 
08:25	79.4	79.4	80.5	53	60.8	1	3	315	0.00	29.933 
08:30	79.6	79.6	80.6	52	60.4	2	4	270	0.00	29.928 
08:35	79.8	79.8	80.8	52	60.6	1	4	270	0.00	29.928 
08:40	80.3	80.3	81.2	51	60.5	2	3	292	0.00	29.928 
08:45	80.7	80.7	81.4	50	60.3	2	4	292	0.00	29.929 
08:50	81.1	81.1	81.8	50	60.7	2	4	270	0.00	29.929 
08:55	81.4	81.4	82.1	50	60.9	2	5	270	0.00	29.929 
09:00	81.6	81.6	82.2	49	60.6	2	5	225	0.00	29.924 
09:05	82.2	82.2	82.7	48	60.5	1	4	248	0.00	29.924 
09:10	82.8	82.8	83.2	47	60.5	2	3	315	0.00	29.924 
09:15	83.0	83.0	83.4	47	60.7	2	5	315	0.00	29.919 
09:20	83.2	83.2	83.4	46	60.2	3	7	225	0.00	29.919 
09:25	83.4	83.4	83.7	46	60.4	2	7	270	0.00	29.919 
09:30	83.8	83.8	84.3	47	61.4	1	4	270	0.00	29.917 
09:35	84.3	84.3	84.7	46	61.2	2	4	270	0.00	29.917 
09:40	84.7	84.7	84.7	44	60.3	2	4	270	0.00	29.917 
09:45	84.9	84.9	85.0	44	60.5	3	6	248	0.00	29.914 
09:50	85.3	85.3	85.2	43	60.2	2	5	248	0.00	29.914 
09:55	85.5	85.5	85.5	43	60.4	2	5	270	0.00	29.914 
10:00	85.3	85.3	85.0	42	59.6	3	7	270	0.00	29.906 
10:05	85.7	85.7	85.5	42	59.9	2	7	270	0.00	29.906 
10:10	85.9	85.9	85.5	41	59.4	2	6	270	0.00	29.906 
10:15	85.9	85.9	85.5	41	59.4	3	8	270	0.00	29.907 
10:20	85.7	85.7	85.3	41	59.3	3	6	270	0.00	29.907 
10:25	85.9	85.9	85.7	42	60.1	3	7	248	0.00	29.907 
10:30	86.1	86.1	86.0	42	60.3	3	7	270	0.00	29.903 
10:35	86.3	86.3	86.0	41	59.8	3	7	270	0.00	29.903 
10:40	86.7	86.7	86.5	41	60.1	2	4	270	0.00	29.903 
10:45	87.2	87.2	87.1	41	60.6	2	4	270	0.00	29.889 
10:50	87.4	87.4	87.1	40	60.1	3	6	270	0.00	29.889 
10:55	87.2	87.2	86.9	40	59.9	3	5	270	0.00	29.889 
11:00	87.4	87.4	87.1	40	60.1	3	7	248	0.00	29.894 
11:05	87.6	87.6	87.4	40	60.3	2	6	270	0.00	29.894 
11:10	87.8	87.8	87.4	39	59.7	3	7	248	0.00	29.894 
11:15	88.0	88.0	87.6	39	59.9	4	9	270	0.00	29.888 
11:20	87.8	87.8	87.4	39	59.7	4	11	270	0.00	29.888 
11:25	88.2	88.2	87.9	39	60.1	3	7	270	0.00	29.888 
11:30	88.6	88.6	88.2	38	59.7	3	9	270	0.00	29.885 
11:35	88.8	88.8	88.1	37	59.1	3	7	270	0.00	29.885 
11:40	88.6	88.6	88.2	38	59.7	4	8	270	0.00	29.885 
11:45	89.0	89.0	88.7	38	60.1	3	5	270	0.00	29.882 
11:50	89.5	89.5	89.1	37	59.7	3	6	270	0.00	29.882 
11:55	89.9	89.9	89.9	38	60.8	2	5	248	0.00	29.882 
12:00	90.5	90.5	90.1	36	59.9	2	4	248	0.00	29.875 
12:05	90.5	90.5	89.3	33	57.4	4	13	270	0.00	29.875 
12:10	89.9	89.9	89.3	36	59.3	4	7	270	0.00	29.875 
12:15	89.7	89.7	89.3	37	59.9	4	7	270	0.00	29.879 
12:20	89.9	89.9	89.3	36	59.3	3	9	248	0.00	29.879 
12:25	90.3	90.3	89.8	36	59.7	3	5	270	0.00	29.879 
12:30	90.7	90.7	90.4	36	60.0	2	6	248	0.00	29.871 
12:35	91.0	91.0	90.5	35	59.5	3	6	248	0.00	29.871 
12:40	91.0	91.0	90.8	36	60.3	2	7	270	0.00	29.871 
12:45	91.6	91.6	91.3	35	60.0	2	4	270	0.00	29.869 
12:50	92.3	92.3	92.0	34	59.8	2	4	270	0.00	29.869 
12:55	92.3	92.3	91.6	33	59.0	4	11	248	0.00	29.869 
13:00	91.8	91.8	91.6	35	60.2	3	7	248	0.00	29.868 
13:05	92.5	92.5	92.6	35	60.8	2	5	248	0.00	29.868 
13:10	92.7	92.7	92.2	33	59.3	3	7	248	0.00	29.868 
13:15	92.5	92.5	91.9	33	59.2	3	7	270	0.00	29.867 
13:20	92.7	92.7	92.5	34	60.2	2	5	292	0.00	29.867 
13:25	92.9	92.9	92.1	32	58.6	3	10	270	0.00	29.867 
13:30	92.5	92.5	91.9	33	59.2	3	7	270	0.00	29.864 
13:35	92.7	92.7	92.2	33	59.3	3	10	270	0.00	29.864 
13:40	92.9	92.9	92.5	33	59.5	3	9	248	0.00	29.864 
13:45	93.2	93.2	92.6	32	58.9	2	6	248	0.00	29.853 
13:50	92.7	92.7	92.2	33	59.3	2	5	248	0.00	29.853 
13:55	92.5	92.5	91.6	32	58.3	2	5	248	0.00	29.853 
14:00	92.3	92.3	91.6	33	59.0	2	5	248	0.00	29.853 
14:05	92.1	92.1	91.4	33	58.8	2	4	248	0.00	29.853 
14:10	92.5	92.5	91.6	32	58.3	3	6	270	0.00	29.853 
14:15	92.5	92.5	91.9	33	59.2	3	7	270	0.00	29.843 
14:20	92.5	92.5	91.3	31	57.4	3	9	270	0.00	29.843 
14:25	92.7	92.7	92.2	33	59.3	3	10	248	0.00	29.843 
14:30	93.4	93.4	92.8	32	59.1	3	7	270	0.00	29.839 
14:35	93.2	93.2	92.6	32	58.9	3	7	270	0.00	29.839 
14:40	93.4	93.4	91.9	29	56.3	3	6	248	0.00	29.839 
14:45	93.6	93.6	92.1	29	56.5	3	7	270	0.00	29.833 
14:50	93.6	93.6	92.1	29	56.5	3	11	270	0.00	29.833 
14:55	93.8	93.8	92.7	30	57.6	3	6	248	0.00	29.833 
15:00	94.0	94.0	92.7	29	56.8	2	5	248	0.00	29.825 
15:05	94.3	94.3	92.8	28	56.1	4	10	248	0.00	29.825 
15:10	93.8	93.8	92.1	28	55.7	2	5	248	0.00	29.825 
15:15	92.9	92.9	91.2	29	55.9	3	6	270	0.00	29.823 
15:20	92.1	92.1	90.5	30	56.2	3	7	248	0.00	29.823 
15:25	92.1	92.1	91.1	32	58.0	2	6	270	0.00	29.823 
15:30	93.2	93.2	91.3	28	55.2	3	8	270	0.00	29.823 
15:35	93.2	93.2	91.6	29	56.2	3	6	248	0.00	29.823 
15:40	93.4	93.4	91.6	28	55.4	3	7	248	0.00	29.823 
15:45	92.9	92.9	91.2	29	55.9	2	9	270	0.00	29.818 
15:50	92.5	92.5	91.0	30	56.5	3	6	270	0.00	29.818 
15:55	92.7	92.7	91.6	31	57.6	2	6	270	0.00	29.818 
16:00	92.9	92.9	91.5	30	56.8	2	4	270	0.00	29.810 
16:05	92.5	92.5	91.3	31	57.4	3	6	270	0.00	29.810 
16:10	91.8	91.8	90.7	32	57.7	3	7	270	0.00	29.810 
16:15	91.4	91.4	91.4	36	60.6	3	6	248	0.00	29.807 
16:20	91.0	91.0	90.8	36	60.3	2	5	270	0.00	29.807 
16:25	91.2	91.2	91.8	38	62.0	4	10	270	0.00	29.807 
16:30	91.0	91.0	91.5	38	61.8	3	5	270	0.00	29.800 
16:35	91.2	91.2	91.4	37	61.2	3	7	248	0.00	29.800 
16:40	90.5	90.5	90.7	38	61.4	4	10	270	0.00	29.800 
16:45	90.3	90.3	90.8	39	61.9	3	5	270	0.00	29.794 
16:50	89.7	89.7	89.9	39	61.4	3	5	270	0.00	29.794 
16:55	88.6	88.6	88.7	40	61.1	3	6	315	0.00	29.794 
17:00	88.2	88.2	88.4	41	61.5	2	5	270	0.00	29.794 
17:05	87.0	87.0	90.4	53	67.8	2	5	270	0.01	29.794 
17:10	80.3	80.3	82.8	65	67.4	4	9	248	0.17	29.794 
17:15	75.6	75.6	76.8	76	67.5	3	6	248	0.14	29.847 
17:20	73.3	73.3	73.3	83	67.8	1	4	248	0.19	29.847 
17:25	72.3	72.3	72.3	86	67.9	0	1	248	0.03	29.847 
17:30	71.6	71.6	71.6	88	67.8	0	2	248	0.06	29.822 
17:35	71.3	71.3	71.3	89	67.9	1	3	248	0.01	29.822 
17:40	71.3	71.3	71.3	90	68.2	1	3	248	0.00	29.822 
17:45	71.6	71.6	71.6	91	68.8	2	7	248	0.11	29.837 
17:50	71.5	71.5	71.5	91	68.7	1	5	315	0.01	29.837 
17:55	71.8	71.8	71.8	92	69.3	0	1	315	0.00	29.837 
18:00	72.5	72.5	72.5	92	70.0	0	3	315	0.00	29.842 
18:05	72.7	72.7	72.7	92	70.2	0	2	270	0.00	29.842 
18:10	72.7	72.7	72.7	91	69.9	1	2	270	0.00	29.842 
18:15	72.8	72.8	72.8	92	70.3	0	1	270	0.01	29.851 
18:20	72.8	72.8	72.8	92	70.3	0	2	270	0.00	29.851 
18:25	72.7	72.7	72.7	91	69.9	0	2	292	0.00	29.851 
18:30	72.7	72.7	72.7	91	69.9	0	1	292	0.00	29.854 
18:35	72.7	72.7	72.7	91	69.9	0	2	292	0.00	29.854 
18:40	72.8	72.8	72.8	91	70.0	0	2	292	0.00	29.854 
18:45	73.2	73.2	73.2	90	70.1	1	3	292	0.00	29.856 
18:50	73.2	73.2	73.2	88	69.4	1	3	292	0.00	29.856 
18:55	73.3	73.3	73.3	86	68.8	1	2	292	0.00	29.856 
19:00	73.5	73.5	73.5	85	68.7	0	1	292	0.00	29.865 
19:05	73.7	73.7	73.7	84	68.6	0	2	292	0.00	29.865 
19:10	73.7	73.7	73.7	82	67.9	0	3	292	0.00	29.865 
19:15	73.9	73.9	73.9	81	67.7	1	3	292	0.00	29.878 
19:20	73.9	73.9	73.9	80	67.3	0	2	292	0.00	29.878 
19:25	74.0	74.0	74.0	79	67.1	0	2	292	0.00	29.878 
19:30	74.0	74.0	74.0	77	66.3	1	4	292	0.00	29.891 
19:35	74.2	74.2	74.2	77	66.5	1	4	292	0.00	29.891 
19:40	74.2	74.2	74.2	76	66.1	2	4	292	0.00	29.891 
19:45	74.0	74.0	74.0	77	66.3	2	4	292	0.00	29.910 
19:50	73.7	73.7	73.7	79	66.8	1	3	292	0.00	29.910 
19:55	73.3	73.3	73.3	80	66.7	0	2	292	0.00	29.910 
20:00	73.2	73.2	73.2	82	67.4	0	1	292	0.00	29.911 
20:05	73.0	73.0	73.0	83	67.5	0	0	---	0.00	29.911 
20:10	73.0	73.0	73.0	84	67.9	0	0	---	0.00	29.911 
20:15	72.8	72.8	72.8	84	67.7	0	0	---	0.00	29.898 
20:20	72.7	72.7	72.7	85	67.9	0	1	292	0.00	29.898 
20:25	72.7	72.7	72.7	85	67.9	0	1	292	0.00	29.898 
20:30	72.5	72.5	72.5	85	67.7	0	1	292	0.00	29.899 
20:35	72.5	72.5	72.5	85	67.7	0	1	292	0.00	29.899 
20:40	72.5	72.5	72.5	85	67.7	0	0	---	0.00	29.899 
20:45	72.5	72.5	72.5	85	67.7	0	0	---	0.00	29.893 
20:50	72.5	72.5	72.5	86	68.1	0	0	---	0.00	29.893 
20:55	72.3	72.3	72.3	86	67.9	0	0	---	0.00	29.893 
21:00	72.5	72.5	72.5	86	68.1	0	0	---	0.00	29.887 
21:05	72.5	72.5	72.5	85	67.7	0	1	292	0.00	29.887 
21:10	72.5	72.5	72.5	83	67.0	0	1	292	0.00	29.887 
21:15	72.5	72.5	72.5	81	66.3	0	2	292	0.00	29.878 
21:20	72.5	72.5	72.5	80	66.0	0	1	292	0.00	29.878 
21:25	72.5	72.5	72.5	80	66.0	0	1	292	0.00	29.878 
21:30	72.5	72.5	72.5	79	65.6	0	1	292	0.00	29.874 
21:35	72.3	72.3	72.3	78	65.0	0	2	292	0.00	29.874 
21:40	72.3	72.3	72.3	78	65.0	0	2	292	0.00	29.874 
21:45	72.3	72.3	72.3	78	65.0	0	1	292	0.00	29.878 
21:50	72.1	72.1	72.1	78	64.8	0	1	292	0.00	29.878 
21:55	72.1	72.1	72.1	78	64.8	0	1	292	0.00	29.878 
22:00	72.1	72.1	72.1	78	64.8	0	2	292	0.00	29.885 
22:05	72.1	72.1	72.1	78	64.8	0	1	292	0.00	29.885 
22:10	72.0	72.0	72.0	78	64.8	0	1	292	0.00	29.885 
22:15	72.0	72.0	72.0	78	64.8	0	1	292	0.00	29.891 
22:20	71.8	71.8	71.8	78	64.6	0	0	---	0.00	29.891 
22:25	71.6	71.6	71.6	78	64.4	0	1	292	0.00	29.891 
22:30	71.5	71.5	71.5	79	64.6	0	0	---	0.00	29.891 
22:35	71.1	71.1	71.1	79	64.2	0	0	---	0.00	29.891 
22:40	70.9	70.9	70.9	79	64.1	0	0	---	0.00	29.891 
22:45	70.6	70.6	70.6	79	63.8	0	1	292	0.00	29.894 
22:50	70.4	70.4	70.4	77	62.8	0	1	292	0.00	29.894 
22:55	70.3	70.3	70.3	77	62.7	0	1	292	0.00	29.894 
23:00	70.3	70.3	70.3	76	62.4	0	1	292	0.00	29.901 
23:05	70.1	70.1	70.1	76	62.2	0	2	292	0.00	29.901 
23:10	69.8	69.8	69.8	76	61.9	0	1	292	0.00	29.901 
23:15	69.6	69.6	69.6	76	61.7	0	1	292	0.00	29.902 
23:20	69.3	69.3	69.3	76	61.4	0	1	292	0.00	29.902 
23:25	69.1	69.1	69.1	77	61.6	0	0	---	0.00	29.902 
23:30	68.8	68.8	68.8	77	61.3	0	0	---	0.00	29.904 
23:35	68.4	68.4	68.4	78	61.3	0	0	---	0.00	29.904 
23:40	68.3	68.3	68.3	79	61.5	0	0	---	0.00	29.904 
23:45	67.9	67.9	67.9	80	61.5	0	0	---	0.00	29.909 
23:50	67.8	67.8	67.8	81	61.7	0	1	292	0.00	29.909 
23:55	67.6	67.6	67.6	81	61.6	0	0	---	0.00	29.909 

CoCoRaHS
IN-AL-39
A2 Web Hosting
Creative Commons License
GoDaddy
search engine by freefind advanced

loaded 2018-11-12 15:49:42 • last modified 2010-11-18 10:43:29
Privacy PolicyDisclaimer
• wx.awcolley.com is powered by PmWiki v.2002016 •
• all content (unless otherwise noted) © 2018 A W Colley